sensor_id;sensor_type;location;lat;lon;timestamp;pressure;altitude;pressure_sealevel;temperature;humidity
58373;BME280;44177;43.356;27.672;2023-07-20T00:02:15;97550.31;;;21.80;67.07
58373;BME280;44177;43.356;27.672;2023-07-20T00:04:41;97548.31;;;21.81;66.62
58373;BME280;44177;43.356;27.672;2023-07-20T00:07:06;97552.81;;;21.74;66.31
58373;BME280;44177;43.356;27.672;2023-07-20T00:09:32;97560.56;;;21.67;66.27
58373;BME280;44177;43.356;27.672;2023-07-20T00:11:57;97555.78;;;21.67;66.16
58373;BME280;44177;43.356;27.672;2023-07-20T00:14:25;97570.03;;;21.69;65.93
58373;BME280;44177;43.356;27.672;2023-07-20T00:16:51;97567.78;;;21.64;66.00
58373;BME280;44177;43.356;27.672;2023-07-20T00:19:26;97571.06;;;21.59;65.81
58373;BME280;44177;43.356;27.672;2023-07-20T00:21:53;97562.72;;;21.75;63.51
58373;BME280;44177;43.356;27.672;2023-07-20T00:24:20;97566.81;;;22.00;62.18
58373;BME280;44177;43.356;27.672;2023-07-20T00:26:45;97566.19;;;22.22;61.60
58373;BME280;44177;43.356;27.672;2023-07-20T00:29:11;97551.84;;;22.40;61.38
58373;BME280;44177;43.356;27.672;2023-07-20T00:31:36;97548.63;;;22.54;60.60
58373;BME280;44177;43.356;27.672;2023-07-20T00:34:05;97543.72;;;22.59;60.42
58373;BME280;44177;43.356;27.672;2023-07-20T00:36:32;97553.75;;;22.69;60.20
58373;BME280;44177;43.356;27.672;2023-07-20T00:38:58;97553.09;;;22.78;60.00
58373;BME280;44177;43.356;27.672;2023-07-20T00:41:23;97558.88;;;22.83;59.57
58373;BME280;44177;43.356;27.672;2023-07-20T00:43:49;97559.44;;;22.91;59.45
58373;BME280;44177;43.356;27.672;2023-07-20T00:46:16;97552.19;;;22.94;59.26
58373;BME280;44177;43.356;27.672;2023-07-20T00:48:42;97548.97;;;22.95;58.96
58373;BME280;44177;43.356;27.672;2023-07-20T00:51:08;97551.84;;;23.05;58.92
58373;BME280;44177;43.356;27.672;2023-07-20T00:53:33;97550.63;;;23.06;58.81
58373;BME280;44177;43.356;27.672;2023-07-20T00:55:59;97541.59;;;23.01;58.71
58373;BME280;44177;43.356;27.672;2023-07-20T00:58:25;97553.06;;;23.16;58.13
58373;BME280;44177;43.356;27.672;2023-07-20T01:00:51;97552.09;;;23.23;57.59
58373;BME280;44177;43.356;27.672;2023-07-20T01:03:16;97542.84;;;23.26;57.38
58373;BME280;44177;43.356;27.672;2023-07-20T01:05:51;97549.50;;;23.29;57.10
58373;BME280;44177;43.356;27.672;2023-07-20T01:08:40;97544.28;;;23.31;56.96
58373;BME280;44177;43.356;27.672;2023-07-20T01:13:57;97552.50;;;23.34;56.96
58373;BME280;44177;43.356;27.672;2023-07-20T01:16:23;97553.81;;;23.43;56.49
58373;BME280;44177;43.356;27.672;2023-07-20T01:18:49;97552.94;;;23.46;56.25
58373;BME280;44177;43.356;27.672;2023-07-20T01:21:31;97562.59;;;23.54;56.10
58373;BME280;44177;43.356;27.672;2023-07-20T01:32:27;97627.78;;;23.79;56.02
58373;BME280;44177;43.356;27.672;2023-07-20T01:34:55;97640.25;;;23.87;56.20
58373;BME280;44177;43.356;27.672;2023-07-20T01:37:22;97646.81;;;23.80;56.69
58373;BME280;44177;43.356;27.672;2023-07-20T01:39:54;97656.84;;;23.78;57.21
58373;BME280;44177;43.356;27.672;2023-07-20T01:42:22;97661.38;;;23.85;58.22
58373;BME280;44177;43.356;27.672;2023-07-20T01:44:52;97677.44;;;23.80;58.30
58373;BME280;44177;43.356;27.672;2023-07-20T01:47:19;97653.06;;;23.72;58.92
58373;BME280;44177;43.356;27.672;2023-07-20T01:49:44;97665.47;;;23.58;59.71
58373;BME280;44177;43.356;27.672;2023-07-20T01:52:10;97666.22;;;23.58;60.44
58373;BME280;44177;43.356;27.672;2023-07-20T01:54:36;97666.25;;;23.45;61.65
58373;BME280;44177;43.356;27.672;2023-07-20T01:57:02;97670.47;;;23.37;61.83
58373;BME280;44177;43.356;27.672;2023-07-20T01:59:28;97662.81;;;23.28;62.00
58373;BME280;44177;43.356;27.672;2023-07-20T02:01:53;97670.50;;;23.24;62.13
58373;BME280;44177;43.356;27.672;2023-07-20T02:04:19;97654.88;;;23.14;62.21
58373;BME280;44177;43.356;27.672;2023-07-20T02:06:44;97646.06;;;23.02;62.18
58373;BME280;44177;43.356;27.672;2023-07-20T02:09:10;97651.75;;;23.12;61.99
58373;BME280;44177;43.356;27.672;2023-07-20T02:11:35;97638.41;;;23.07;62.23
58373;BME280;44177;43.356;27.672;2023-07-20T02:14:01;97644.84;;;23.03;62.20
58373;BME280;44177;43.356;27.672;2023-07-20T02:16:26;97627.63;;;22.96;62.24
58373;BME280;44177;43.356;27.672;2023-07-20T02:18:52;97628.06;;;22.94;62.45
58373;BME280;44177;43.356;27.672;2023-07-20T02:21:18;97630.41;;;22.83;62.80
58373;BME280;44177;43.356;27.672;2023-07-20T02:23:43;97616.81;;;22.85;62.87
58373;BME280;44177;43.356;27.672;2023-07-20T02:26:09;97603.34;;;22.83;62.73
58373;BME280;44177;43.356;27.672;2023-07-20T02:28:35;97595.00;;;22.70;63.02
58373;BME280;44177;43.356;27.672;2023-07-20T02:31:00;97603.22;;;22.74;63.25
58373;BME280;44177;43.356;27.672;2023-07-20T02:33:26;97609.25;;;22.73;63.03
58373;BME280;44177;43.356;27.672;2023-07-20T02:35:52;97602.44;;;22.61;63.28
58373;BME280;44177;43.356;27.672;2023-07-20T02:38:17;97605.69;;;22.59;63.57
58373;BME280;44177;43.356;27.672;2023-07-20T02:40:43;97594.28;;;22.40;64.29
58373;BME280;44177;43.356;27.672;2023-07-20T02:43:09;97593.88;;;22.25;64.90
58373;BME280;44177;43.356;27.672;2023-07-20T02:45:35;97593.38;;;22.01;65.94
58373;BME280;44177;43.356;27.672;2023-07-20T02:48:00;97588.09;;;21.90;66.55
58373;BME280;44177;43.356;27.672;2023-07-20T02:50:26;97585.34;;;21.90;66.89
58373;BME280;44177;43.356;27.672;2023-07-20T02:52:51;97578.31;;;21.86;67.04
58373;BME280;44177;43.356;27.672;2023-07-20T02:55:17;97554.75;;;21.77;67.42
58373;BME280;44177;43.356;27.672;2023-07-20T02:57:43;97551.63;;;21.75;67.75
58373;BME280;44177;43.356;27.672;2023-07-20T03:00:09;97540.19;;;21.73;67.88
58373;BME280;44177;43.356;27.672;2023-07-20T03:02:34;97547.09;;;21.82;67.48
58373;BME280;44177;43.356;27.672;2023-07-20T03:05:00;97543.69;;;21.90;67.39
58373;BME280;44177;43.356;27.672;2023-07-20T03:07:28;97542.28;;;21.99;67.21
58373;BME280;44177;43.356;27.672;2023-07-20T03:09:54;97530.19;;;22.05;67.18
58373;BME280;44177;43.356;27.672;2023-07-20T03:12:20;97515.41;;;22.08;66.70
58373;BME280;44177;43.356;27.672;2023-07-20T03:14:47;97502.88;;;22.17;66.71
58373;BME280;44177;43.356;27.672;2023-07-20T03:17:12;97496.75;;;22.22;66.70
58373;BME280;44177;43.356;27.672;2023-07-20T03:19:38;97499.66;;;22.05;67.09
58373;BME280;44177;43.356;27.672;2023-07-20T03:22:03;97480.28;;;21.89;68.13
58373;BME280;44177;43.356;27.672;2023-07-20T03:24:29;97472.84;;;21.99;68.11
58373;BME280;44177;43.356;27.672;2023-07-20T03:26:54;97459.22;;;22.17;67.60
58373;BME280;44177;43.356;27.672;2023-07-20T03:29:20;97454.59;;;22.40;67.43
58373;BME280;44177;43.356;27.672;2023-07-20T03:31:45;97416.56;;;22.50;66.70
58373;BME280;44177;43.356;27.672;2023-07-20T03:34:11;97429.78;;;22.71;67.02
58373;BME280;44177;43.356;27.672;2023-07-20T03:36:37;97429.16;;;22.90;66.91
58373;BME280;44177;43.356;27.672;2023-07-20T03:39:02;97425.72;;;22.98;66.38
58373;BME280;44177;43.356;27.672;2023-07-20T03:41:28;97421.13;;;23.17;65.82
58373;BME280;44177;43.356;27.672;2023-07-20T03:43:54;97391.91;;;23.35;65.48
58373;BME280;44177;43.356;27.672;2023-07-20T03:46:20;97392.13;;;23.50;65.20
58373;BME280;44177;43.356;27.672;2023-07-20T03:48:45;97391.75;;;23.61;64.70
58373;BME280;44177;43.356;27.672;2023-07-20T03:51:11;97390.09;;;23.63;64.63
58373;BME280;44177;43.356;27.672;2023-07-20T03:53:37;97394.13;;;23.72;64.86
58373;BME280;44177;43.356;27.672;2023-07-20T03:56:02;97391.03;;;23.70;64.97
58373;BME280;44177;43.356;27.672;2023-07-20T03:58:28;97390.44;;;23.75;65.29
58373;BME280;44177;43.356;27.672;2023-07-20T04:00:55;97389.84;;;23.80;64.97
58373;BME280;44177;43.356;27.672;2023-07-20T04:03:20;97387.44;;;23.91;65.14
58373;BME280;44177;43.356;27.672;2023-07-20T04:05:48;97390.22;;;23.91;65.33
58373;BME280;44177;43.356;27.672;2023-07-20T04:08:13;97407.16;;;23.97;64.85
58373;BME280;44177;43.356;27.672;2023-07-20T04:10:39;97433.19;;;24.03;64.45
58373;BME280;44177;43.356;27.672;2023-07-20T04:13:05;97453.69;;;24.19;65.22
58373;BME280;44177;43.356;27.672;2023-07-20T04:15:32;97450.63;;;24.26;63.73
58373;BME280;44177;43.356;27.672;2023-07-20T04:17:57;97452.25;;;24.14;63.39
58373;BME280;44177;43.356;27.672;2023-07-20T04:20:23;97443.63;;;24.21;62.96
58373;BME280;44177;43.356;27.672;2023-07-20T04:22:49;97455.59;;;24.31;62.85
58373;BME280;44177;43.356;27.672;2023-07-20T04:25:15;97456.06;;;24.29;62.31
58373;BME280;44177;43.356;27.672;2023-07-20T04:27:41;97454.63;;;24.25;62.24
58373;BME280;44177;43.356;27.672;2023-07-20T04:30:07;97451.22;;;24.21;62.67
58373;BME280;44177;43.356;27.672;2023-07-20T04:32:33;97469.34;;;24.25;61.90
58373;BME280;44177;43.356;27.672;2023-07-20T04:34:59;97462.41;;;24.30;61.41
58373;BME280;44177;43.356;27.672;2023-07-20T04:37:25;97457.56;;;24.53;60.47
58373;BME280;44177;43.356;27.672;2023-07-20T04:39:50;97465.31;;;24.58;61.10
58373;BME280;44177;43.356;27.672;2023-07-20T04:42:16;97479.38;;;24.86;61.21
58373;BME280;44177;43.356;27.672;2023-07-20T04:44:41;97500.03;;;25.16;58.39
58373;BME280;44177;43.356;27.672;2023-07-20T04:47:07;97503.31;;;25.24;57.74
58373;BME280;44177;43.356;27.672;2023-07-20T04:49:34;97517.09;;;25.18;57.49
58373;BME280;44177;43.356;27.672;2023-07-20T04:51:59;97523.28;;;25.04;58.77
58373;BME280;44177;43.356;27.672;2023-07-20T04:54:25;97516.88;;;24.94;58.29
58373;BME280;44177;43.356;27.672;2023-07-20T04:56:53;97538.09;;;24.91;58.18
58373;BME280;44177;43.356;27.672;2023-07-20T04:59:18;97546.03;;;24.93;57.91
58373;BME280;44177;43.356;27.672;2023-07-20T05:01:44;97537.19;;;24.95;58.38
58373;BME280;44177;43.356;27.672;2023-07-20T05:04:10;97541.84;;;24.98;58.51
58373;BME280;44177;43.356;27.672;2023-07-20T05:06:35;97535.66;;;25.03;58.34
58373;BME280;44177;43.356;27.672;2023-07-20T05:09:01;97546.22;;;25.08;58.35
58373;BME280;44177;43.356;27.672;2023-07-20T05:11:26;97554.75;;;25.14;58.02
58373;BME280;44177;43.356;27.672;2023-07-20T05:13:52;97568.56;;;25.17;57.56
58373;BME280;44177;43.356;27.672;2023-07-20T05:16:17;97572.00;;;25.21;57.39
58373;BME280;44177;43.356;27.672;2023-07-20T05:18:43;97581.00;;;25.26;57.44
58373;BME280;44177;43.356;27.672;2023-07-20T05:21:09;97564.75;;;25.33;57.04
58373;BME280;44177;43.356;27.672;2023-07-20T05:23:34;97564.75;;;25.43;56.90
58373;BME280;44177;43.356;27.672;2023-07-20T05:26:00;97575.47;;;25.44;57.26
58373;BME280;44177;43.356;27.672;2023-07-20T05:28:26;97557.13;;;25.34;57.64
58373;BME280;44177;43.356;27.672;2023-07-20T05:30:52;97555.41;;;25.36;57.18
58373;BME280;44177;43.356;27.672;2023-07-20T05:33:19;97580.47;;;25.59;56.28
58373;BME280;44177;43.356;27.672;2023-07-20T05:35:44;97581.56;;;25.70;55.11
58373;BME280;44177;43.356;27.672;2023-07-20T05:38:10;97583.88;;;25.63;55.21
58373;BME280;44177;43.356;27.672;2023-07-20T05:40:40;97586.03;;;25.77;54.90
58373;BME280;44177;43.356;27.672;2023-07-20T05:43:06;97599.44;;;25.92;54.74
58373;BME280;44177;43.356;27.672;2023-07-20T05:45:31;97588.84;;;25.96;54.14
58373;BME280;44177;43.356;27.672;2023-07-20T05:47:57;97608.72;;;25.98;54.74
58373;BME280;44177;43.356;27.672;2023-07-20T05:50:22;97609.81;;;25.73;53.57
58373;BME280;44177;43.356;27.672;2023-07-20T05:52:48;97611.50;;;25.79;53.15
58373;BME280;44177;43.356;27.672;2023-07-20T05:55:14;97602.22;;;25.82;53.44
58373;BME280;44177;43.356;27.672;2023-07-20T05:57:39;97624.28;;;26.08;52.38
58373;BME280;44177;43.356;27.672;2023-07-20T06:00:08;97620.22;;;26.19;51.79
58373;BME280;44177;43.356;27.672;2023-07-20T06:02:34;97622.59;;;26.20;50.95
58373;BME280;44177;43.356;27.672;2023-07-20T06:04:59;97627.97;;;26.05;49.85
58373;BME280;44177;43.356;27.672;2023-07-20T06:07:25;97632.50;;;26.02;49.99
58373;BME280;44177;43.356;27.672;2023-07-20T06:09:50;97617.59;;;25.96;50.31
58373;BME280;44177;43.356;27.672;2023-07-20T06:12:16;97632.00;;;25.95;50.02
58373;BME280;44177;43.356;27.672;2023-07-20T06:14:42;97631.69;;;25.83;50.30
58373;BME280;44177;43.356;27.672;2023-07-20T06:17:07;97634.31;;;25.68;50.83
58373;BME280;44177;43.356;27.672;2023-07-20T06:19:33;97627.63;;;25.66;52.16
58373;BME280;44177;43.356;27.672;2023-07-20T06:21:58;97623.91;;;25.60;52.86
58373;BME280;44177;43.356;27.672;2023-07-20T06:24:24;97618.78;;;25.49;52.39
58373;BME280;44177;43.356;27.672;2023-07-20T06:26:49;97627.28;;;25.54;52.19
58373;BME280;44177;43.356;27.672;2023-07-20T06:29:15;97621.72;;;25.54;54.06
58373;BME280;44177;43.356;27.672;2023-07-20T06:31:41;97626.81;;;25.47;55.94
58373;BME280;44177;43.356;27.672;2023-07-20T06:34:06;97623.53;;;25.39;60.08
58373;BME280;44177;43.356;27.672;2023-07-20T06:36:32;97607.19;;;25.28;60.51
58373;BME280;44177;43.356;27.672;2023-07-20T06:38:57;97591.97;;;25.20;62.04
58373;BME280;44177;43.356;27.672;2023-07-20T06:41:23;97582.19;;;25.15;63.80
58373;BME280;44177;43.356;27.672;2023-07-20T06:43:49;97571.34;;;25.17;66.61
58373;BME280;44177;43.356;27.672;2023-07-20T06:46:15;97575.38;;;25.16;67.94
58373;BME280;44177;43.356;27.672;2023-07-20T06:48:41;97572.59;;;25.16;68.49
58373;BME280;44177;43.356;27.672;2023-07-20T06:51:06;97557.22;;;25.12;70.41
58373;BME280;44177;43.356;27.672;2023-07-20T06:53:32;97578.28;;;25.03;70.12
58373;BME280;44177;43.356;27.672;2023-07-20T06:55:57;97573.78;;;25.06;70.11
58373;BME280;44177;43.356;27.672;2023-07-20T06:58:23;97576.75;;;25.12;71.13
58373;BME280;44177;43.356;27.672;2023-07-20T07:00:49;97568.56;;;25.17;70.30
58373;BME280;44177;43.356;27.672;2023-07-20T07:03:15;97580.50;;;25.18;64.41
58373;BME280;44177;43.356;27.672;2023-07-20T07:05:40;97580.03;;;25.19;64.51
58373;BME280;44177;43.356;27.672;2023-07-20T07:08:06;97582.22;;;25.25;65.51
58373;BME280;44177;43.356;27.672;2023-07-20T07:10:34;97570.19;;;25.46;65.38
58373;BME280;44177;43.356;27.672;2023-07-20T07:13:00;97579.56;;;25.90;62.34
58373;BME280;44177;43.356;27.672;2023-07-20T07:15:26;97579.41;;;26.12;62.66
58373;BME280;44177;43.356;27.672;2023-07-20T07:17:51;97583.88;;;26.37;61.53
58373;BME280;44177;43.356;27.672;2023-07-20T07:20:17;97576.25;;;26.47;59.35
58373;BME280;44177;43.356;27.672;2023-07-20T07:22:42;97584.13;;;26.67;57.44
58373;BME280;44177;43.356;27.672;2023-07-20T07:25:09;97582.88;;;26.77;58.40
58373;BME280;44177;43.356;27.672;2023-07-20T07:27:35;97570.72;;;26.80;54.49
58373;BME280;44177;43.356;27.672;2023-07-20T07:30:02;97583.91;;;26.89;57.19
58373;BME280;44177;43.356;27.672;2023-07-20T07:32:27;97586.69;;;26.99;56.23
58373;BME280;44177;43.356;27.672;2023-07-20T07:34:53;97578.50;;;26.86;56.56
58373;BME280;44177;43.356;27.672;2023-07-20T07:37:18;97586.41;;;26.87;55.46
58373;BME280;44177;43.356;27.672;2023-07-20T07:39:45;97590.19;;;27.08;56.45
58373;BME280;44177;43.356;27.672;2023-07-20T07:42:11;97587.06;;;27.16;52.66
58373;BME280;44177;43.356;27.672;2023-07-20T07:44:37;97579.06;;;27.23;53.18
58373;BME280;44177;43.356;27.672;2023-07-20T07:47:03;97590.63;;;27.74;52.23
58373;BME280;44177;43.356;27.672;2023-07-20T07:49:29;97580.03;;;27.93;52.61
58373;BME280;44177;43.356;27.672;2023-07-20T07:51:55;97582.66;;;28.51;50.01
58373;BME280;44177;43.356;27.672;2023-07-20T07:54:20;97577.69;;;28.61;49.01
58373;BME280;44177;43.356;27.672;2023-07-20T07:56:46;97582.44;;;28.55;48.09
58373;BME280;44177;43.356;27.672;2023-07-20T07:59:11;97591.25;;;28.77;47.22
58373;BME280;44177;43.356;27.672;2023-07-20T08:01:37;97577.97;;;29.28;46.98
58373;BME280;44177;43.356;27.672;2023-07-20T08:04:02;97559.75;;;29.80;45.32
58373;BME280;44177;43.356;27.672;2023-07-20T08:06:29;97569.53;;;30.32;44.39
58373;BME280;44177;43.356;27.672;2023-07-20T08:08:54;97569.84;;;30.66;42.37
58373;BME280;44177;43.356;27.672;2023-07-20T08:11:20;97563.69;;;30.99;38.87
58373;BME280;44177;43.356;27.672;2023-07-20T08:13:45;97556.44;;;31.25;39.96
58373;BME280;44177;43.356;27.672;2023-07-20T08:16:11;97555.97;;;31.32;37.93
58373;BME280;44177;43.356;27.672;2023-07-20T08:18:36;97551.59;;;31.25;37.50
58373;BME280;44177;43.356;27.672;2023-07-20T08:21:02;97566.44;;;31.75;36.79
58373;BME280;44177;43.356;27.672;2023-07-20T08:23:28;97562.63;;;31.84;37.22
58373;BME280;44177;43.356;27.672;2023-07-20T08:25:54;97568.84;;;32.16;36.87
58373;BME280;44177;43.356;27.672;2023-07-20T08:28:20;97565.59;;;32.52;35.22
58373;BME280;44177;43.356;27.672;2023-07-20T08:30:47;97573.53;;;32.36;35.67
58373;BME280;44177;43.356;27.672;2023-07-20T08:33:14;97568.84;;;32.10;35.74
58373;BME280;44177;43.356;27.672;2023-07-20T08:35:40;97560.91;;;32.09;35.70
58373;BME280;44177;43.356;27.672;2023-07-20T08:38:07;97563.78;;;32.26;36.29
58373;BME280;44177;43.356;27.672;2023-07-20T08:40:35;97559.44;;;32.48;36.33
58373;BME280;44177;43.356;27.672;2023-07-20T08:43:04;97558.41;;;32.96;35.34
58373;BME280;44177;43.356;27.672;2023-07-20T08:45:33;97575.34;;;32.34;34.99
58373;BME280;44177;43.356;27.672;2023-07-20T08:48:00;97559.63;;;32.21;35.77
58373;BME280;44177;43.356;27.672;2023-07-20T08:50:28;97550.44;;;32.43;34.41
58373;BME280;44177;43.356;27.672;2023-07-20T08:52:57;97545.06;;;32.80;34.68
58373;BME280;44177;43.356;27.672;2023-07-20T08:55:24;97552.69;;;33.42;33.18
58373;BME280;44177;43.356;27.672;2023-07-20T08:57:50;97546.69;;;33.62;32.17
58373;BME280;44177;43.356;27.672;2023-07-20T09:00:19;97534.91;;;33.58;31.88
58373;BME280;44177;43.356;27.672;2023-07-20T09:02:45;97554.16;;;33.54;31.34
58373;BME280;44177;43.356;27.672;2023-07-20T09:05:11;97545.56;;;33.82;32.55
58373;BME280;44177;43.356;27.672;2023-07-20T09:07:40;97537.13;;;34.19;31.91
58373;BME280;44177;43.356;27.672;2023-07-20T09:10:07;97547.34;;;33.91;30.78
58373;BME280;44177;43.356;27.672;2023-07-20T09:12:41;97551.00;;;33.75;31.22
58373;BME280;44177;43.356;27.672;2023-07-20T09:15:06;97546.03;;;34.40;31.05
58373;BME280;44177;43.356;27.672;2023-07-20T09:17:33;97560.22;;;33.87;30.80
58373;BME280;44177;43.356;27.672;2023-07-20T09:23:20;97553.94;;;34.05;30.74
58373;BME280;44177;43.356;27.672;2023-07-20T09:25:47;97553.47;;;34.01;30.66
58373;BME280;44177;43.356;27.672;2023-07-20T09:28:16;97552.94;;;34.03;32.13
58373;BME280;44177;43.356;27.672;2023-07-20T09:30:41;97544.63;;;34.16;30.67
58373;BME280;44177;43.356;27.672;2023-07-20T09:33:18;97559.19;;;33.90;31.44
58373;BME280;44177;43.356;27.672;2023-07-20T09:35:44;97550.63;;;34.01;31.32
58373;BME280;44177;43.356;27.672;2023-07-20T09:38:10;97551.34;;;34.13;30.91
58373;BME280;44177;43.356;27.672;2023-07-20T09:40:39;97541.06;;;34.10;31.34
58373;BME280;44177;43.356;27.672;2023-07-20T09:43:08;97534.41;;;34.07;31.70
58373;BME280;44177;43.356;27.672;2023-07-20T09:45:35;97535.81;;;34.25;31.84
58373;BME280;44177;43.356;27.672;2023-07-20T09:48:05;97521.41;;;34.23;31.13
58373;BME280;44177;43.356;27.672;2023-07-20T09:50:41;97526.22;;;34.70;31.65
58373;BME280;44177;43.356;27.672;2023-07-20T09:53:11;97543.28;;;35.20;30.28
58373;BME280;44177;43.356;27.672;2023-07-20T09:55:39;97559.19;;;34.68;30.24
58373;BME280;44177;43.356;27.672;2023-07-20T09:58:06;97541.03;;;34.82;31.21
58373;BME280;44177;43.356;27.672;2023-07-20T10:00:36;97530.50;;;34.52;30.51
58373;BME280;44177;43.356;27.672;2023-07-20T10:03:04;97537.00;;;34.72;30.62
58373;BME280;44177;43.356;27.672;2023-07-20T10:05:33;97556.59;;;34.70;30.88
58373;BME280;44177;43.356;27.672;2023-07-20T10:08:02;97526.56;;;34.25;30.96
58373;BME280;44177;43.356;27.672;2023-07-20T10:10:28;97536.53;;;34.37;30.80
58373;BME280;44177;43.356;27.672;2023-07-20T10:12:57;97535.34;;;34.21;31.03
58373;BME280;44177;43.356;27.672;2023-07-20T10:15:30;97512.84;;;34.40;31.54
58373;BME280;44177;43.356;27.672;2023-07-20T10:18:14;97517.59;;;34.82;30.23
58373;BME280;44177;43.356;27.672;2023-07-20T10:20:43;97512.09;;;34.64;30.29
58373;BME280;44177;43.356;27.672;2023-07-20T10:23:10;97509.66;;;34.50;31.10
58373;BME280;44177;43.356;27.672;2023-07-20T10:25:37;97503.50;;;34.76;31.03
58373;BME280;44177;43.356;27.672;2023-07-20T10:28:07;97516.03;;;35.36;29.80
58373;BME280;44177;43.356;27.672;2023-07-20T10:30:36;97499.13;;;35.87;29.85
58373;BME280;44177;43.356;27.672;2023-07-20T10:33:05;97495.88;;;36.16;28.72
58373;BME280;44177;43.356;27.672;2023-07-20T10:35:50;97502.81;;;35.63;29.31
58373;BME280;44177;43.356;27.672;2023-07-20T10:38:15;97486.88;;;35.79;29.37
58373;BME280;44177;43.356;27.672;2023-07-20T10:40:41;97493.94;;;35.72;29.33
58373;BME280;44177;43.356;27.672;2023-07-20T10:43:08;97490.47;;;35.99;29.46
58373;BME280;44177;43.356;27.672;2023-07-20T10:45:42;97493.00;;;36.02;28.94
58373;BME280;44177;43.356;27.672;2023-07-20T10:48:14;97493.69;;;36.09;29.38
58373;BME280;44177;43.356;27.672;2023-07-20T10:50:41;97486.84;;;36.17;28.70
58373;BME280;44177;43.356;27.672;2023-07-20T10:53:14;97474.59;;;36.42;28.88
58373;BME280;44177;43.356;27.672;2023-07-20T10:55:41;97474.97;;;36.78;28.93
58373;BME280;44177;43.356;27.672;2023-07-20T10:58:08;97481.47;;;36.92;27.63
58373;BME280;44177;43.356;27.672;2023-07-20T11:00:35;97476.31;;;37.18;27.24
58373;BME280;44177;43.356;27.672;2023-07-20T11:03:01;97481.13;;;37.36;27.27
58373;BME280;44177;43.356;27.672;2023-07-20T11:05:35;97473.91;;;37.35;27.48
58373;BME280;44177;43.356;27.672;2023-07-20T11:08:05;97460.22;;;37.34;27.91
58373;BME280;44177;43.356;27.672;2023-07-20T11:10:31;97464.94;;;36.91;27.22
58373;BME280;44177;43.356;27.672;2023-07-20T11:16:04;97448.97;;;37.41;26.62
58373;BME280;44177;43.356;27.672;2023-07-20T11:18:33;97436.31;;;37.29;27.30
58373;BME280;44177;43.356;27.672;2023-07-20T11:20:59;97434.03;;;37.62;27.00
58373;BME280;44177;43.356;27.672;2023-07-20T11:23:25;97428.34;;;37.97;26.06
58373;BME280;44177;43.356;27.672;2023-07-20T11:25:51;97420.97;;;38.22;25.10
58373;BME280;44177;43.356;27.672;2023-07-20T11:28:17;97428.03;;;38.00;26.16
58373;BME280;44177;43.356;27.672;2023-07-20T11:30:42;97425.31;;;37.81;26.25
58373;BME280;44177;43.356;27.672;2023-07-20T11:33:08;97419.09;;;37.83;26.43
58373;BME280;44177;43.356;27.672;2023-07-20T11:35:44;97396.06;;;38.36;25.55
58373;BME280;44177;43.356;27.672;2023-07-20T11:38:09;97408.09;;;39.08;24.71
58373;BME280;44177;43.356;27.672;2023-07-20T11:40:35;97396.81;;;38.87;24.19
58373;BME280;44177;43.356;27.672;2023-07-20T11:43:01;97399.94;;;38.76;24.87
58373;BME280;44177;43.356;27.672;2023-07-20T11:45:27;97415.66;;;38.98;24.15
58373;BME280;44177;43.356;27.672;2023-07-20T11:47:58;97388.03;;;38.85;24.29
58373;BME280;44177;43.356;27.672;2023-07-20T11:50:24;97395.50;;;38.17;25.22
58373;BME280;44177;43.356;27.672;2023-07-20T11:52:50;97399.88;;;38.18;25.48
58373;BME280;44177;43.356;27.672;2023-07-20T11:55:16;97387.88;;;38.33;24.93
58373;BME280;44177;43.356;27.672;2023-07-20T11:58:00;97396.63;;;38.64;25.19
58373;BME280;44177;43.356;27.672;2023-07-20T12:00:26;97393.06;;;38.42;25.29
58373;BME280;44177;43.356;27.672;2023-07-20T12:02:53;97389.53;;;37.86;24.57
58373;BME280;44177;43.356;27.672;2023-07-20T12:05:19;97385.47;;;37.95;25.64
58373;BME280;44177;43.356;27.672;2023-07-20T12:07:45;97374.91;;;38.53;24.56
58373;BME280;44177;43.356;27.672;2023-07-20T12:10:11;97373.28;;;38.94;24.11
58373;BME280;44177;43.356;27.672;2023-07-20T12:12:38;97385.72;;;38.04;24.53
58373;BME280;44177;43.356;27.672;2023-07-20T12:15:16;97378.50;;;38.24;25.60
58373;BME280;44177;43.356;27.672;2023-07-20T12:17:46;97378.38;;;38.09;24.94
58373;BME280;44177;43.356;27.672;2023-07-20T12:20:12;97374.44;;;37.91;24.96
58373;BME280;44177;43.356;27.672;2023-07-20T12:22:42;97373.53;;;38.25;24.65
58373;BME280;44177;43.356;27.672;2023-07-20T12:25:08;97367.03;;;38.17;24.96
58373;BME280;44177;43.356;27.672;2023-07-20T12:27:37;97363.81;;;39.07;24.88
58373;BME280;44177;43.356;27.672;2023-07-20T12:30:05;97359.13;;;38.81;24.25
58373;BME280;44177;43.356;27.672;2023-07-20T12:32:33;97363.09;;;39.22;24.02
58373;BME280;44177;43.356;27.672;2023-07-20T12:34:58;97366.03;;;39.38;23.42
58373;BME280;44177;43.356;27.672;2023-07-20T12:37:26;97372.56;;;39.09;23.71
58373;BME280;44177;43.356;27.672;2023-07-20T12:39:52;97351.19;;;39.31;23.83
58373;BME280;44177;43.356;27.672;2023-07-20T12:42:18;97347.69;;;39.77;24.09
58373;BME280;44177;43.356;27.672;2023-07-20T12:44:44;97334.38;;;38.76;23.85
58373;BME280;44177;43.356;27.672;2023-07-20T12:47:09;97352.44;;;39.23;23.76
58373;BME280;44177;43.356;27.672;2023-07-20T12:49:35;97347.31;;;39.81;23.29
58373;BME280;44177;43.356;27.672;2023-07-20T12:52:00;97357.59;;;39.92;24.01
58373;BME280;44177;43.356;27.672;2023-07-20T12:54:26;97356.22;;;39.10;23.18
58373;BME280;44177;43.356;27.672;2023-07-20T12:56:52;97361.66;;;39.37;23.31
58373;BME280;44177;43.356;27.672;2023-07-20T12:59:17;97353.59;;;39.87;23.40
58373;BME280;44177;43.356;27.672;2023-07-20T13:01:43;97347.50;;;40.14;23.49
58373;BME280;44177;43.356;27.672;2023-07-20T13:04:09;97344.81;;;39.85;23.20
58373;BME280;44177;43.356;27.672;2023-07-20T13:06:35;97337.03;;;40.24;23.02